sensor_id;sensor_type;location;lat;lon;timestamp;pressure;altitude;pressure_sealevel;temperature;humidity
2188;BME280;1100;52.014;8.540;2023-03-23T00:02:11;99016.00;;;10.09;81.28
2188;BME280;1100;52.014;8.540;2023-03-23T00:04:36;99026.97;;;10.04;81.35
2188;BME280;1100;52.014;8.540;2023-03-23T00:07:02;99015.53;;;10.02;81.71
2188;BME280;1100;52.014;8.540;2023-03-23T00:09:28;99013.81;;;9.95;81.36
2188;BME280;1100;52.014;8.540;2023-03-23T00:11:53;99012.28;;;9.84;81.71
2188;BME280;1100;52.014;8.540;2023-03-23T00:14:22;99016.75;;;9.72;81.32
2188;BME280;1100;52.014;8.540;2023-03-23T00:16:48;99026.25;;;9.62;82.71
2188;BME280;1100;52.014;8.540;2023-03-23T00:19:14;99013.47;;;9.55;82.37
2188;BME280;1100;52.014;8.540;2023-03-23T00:21:41;99013.16;;;9.53;82.71
2188;BME280;1100;52.014;8.540;2023-03-23T00:24:11;99003.28;;;9.52;83.18
2188;BME280;1100;52.014;8.540;2023-03-23T00:26:39;99003.59;;;9.54;83.23
2188;BME280;1100;52.014;8.540;2023-03-23T00:29:15;98998.03;;;9.54;84.17
2188;BME280;1100;52.014;8.540;2023-03-23T00:31:43;99006.22;;;9.58;84.29
2188;BME280;1100;52.014;8.540;2023-03-23T00:34:13;98989.72;;;9.54;83.93
2188;BME280;1100;52.014;8.540;2023-03-23T00:36:43;98995.88;;;9.49;83.98
2188;BME280;1100;52.014;8.540;2023-03-23T00:39:10;98996.47;;;9.44;83.78
2188;BME280;1100;52.014;8.540;2023-03-23T00:41:35;98991.53;;;9.39;83.76
2188;BME280;1100;52.014;8.540;2023-03-23T00:44:02;98990.13;;;9.34;83.86
2188;BME280;1100;52.014;8.540;2023-03-23T00:46:28;98991.03;;;9.31;84.46
2188;BME280;1100;52.014;8.540;2023-03-23T00:48:56;98988.28;;;9.31;84.31
2188;BME280;1100;52.014;8.540;2023-03-23T00:51:22;98985.19;;;9.29;84.33
2188;BME280;1100;52.014;8.540;2023-03-23T00:53:47;98986.53;;;9.24;84.93
2188;BME280;1100;52.014;8.540;2023-03-23T00:56:13;98978.38;;;9.20;85.02
2188;BME280;1100;52.014;8.540;2023-03-23T00:58:38;98977.59;;;9.20;86.05
2188;BME280;1100;52.014;8.540;2023-03-23T01:01:05;98975.16;;;9.22;85.40
2188;BME280;1100;52.014;8.540;2023-03-23T01:03:30;98964.06;;;9.22;85.22
2188;BME280;1100;52.014;8.540;2023-03-23T01:05:56;98972.69;;;9.24;85.63
2188;BME280;1100;52.014;8.540;2023-03-23T01:08:23;98965.59;;;9.23;85.73
2188;BME280;1100;52.014;8.540;2023-03-23T01:10:49;98963.44;;;9.27;85.59
2188;BME280;1100;52.014;8.540;2023-03-23T01:13:15;98961.31;;;9.31;85.63
2188;BME280;1100;52.014;8.540;2023-03-23T01:15:41;98959.63;;;9.34;85.65
2188;BME280;1100;52.014;8.540;2023-03-23T01:18:08;98952.41;;;9.37;85.61
2188;BME280;1100;52.014;8.540;2023-03-23T01:20:35;98955.78;;;9.41;85.84
2188;BME280;1100;52.014;8.540;2023-03-23T01:23:01;98953.50;;;9.49;86.16
2188;BME280;1100;52.014;8.540;2023-03-23T01:25:28;98950.88;;;9.54;85.82
2188;BME280;1100;52.014;8.540;2023-03-23T01:27:54;98947.81;;;9.62;86.30
2188;BME280;1100;52.014;8.540;2023-03-23T01:30:19;98941.66;;;9.67;86.13
2188;BME280;1100;52.014;8.540;2023-03-23T01:32:45;98945.34;;;9.73;86.10
2188;BME280;1100;52.014;8.540;2023-03-23T01:35:12;98950.44;;;9.75;85.64
2188;BME280;1100;52.014;8.540;2023-03-23T01:37:37;98943.69;;;9.76;85.74
2188;BME280;1100;52.014;8.540;2023-03-23T01:40:03;98949.50;;;9.78;85.65
2188;BME280;1100;52.014;8.540;2023-03-23T01:42:31;98940.91;;;9.76;85.64
2188;BME280;1100;52.014;8.540;2023-03-23T01:45:31;98940.44;;;9.77;85.51
2188;BME280;1100;52.014;8.540;2023-03-23T01:48:04;98932.88;;;9.78;85.52
2188;BME280;1100;52.014;8.540;2023-03-23T01:50:35;98950.75;;;9.77;85.32
2188;BME280;1100;52.014;8.540;2023-03-23T01:53:02;98941.38;;;9.74;85.58
2188;BME280;1100;52.014;8.540;2023-03-23T01:55:31;98938.13;;;9.76;85.47
2188;BME280;1100;52.014;8.540;2023-03-23T01:57:56;98933.78;;;9.75;85.67
2188;BME280;1100;52.014;8.540;2023-03-23T02:00:23;98933.66;;;9.78;85.38
2188;BME280;1100;52.014;8.540;2023-03-23T02:02:50;98941.97;;;9.78;85.33
2188;BME280;1100;52.014;8.540;2023-03-23T02:05:31;98929.94;;;9.81;85.75
2188;BME280;1100;52.014;8.540;2023-03-23T02:07:59;98922.41;;;9.82;85.55
2188;BME280;1100;52.014;8.540;2023-03-23T02:10:29;98923.78;;;9.87;85.60
2188;BME280;1100;52.014;8.540;2023-03-23T02:12:54;98926.69;;;9.92;86.17
2188;BME280;1100;52.014;8.540;2023-03-23T02:15:20;98918.22;;;9.96;85.65
2188;BME280;1100;52.014;8.540;2023-03-23T02:17:53;98926.56;;;9.96;85.66
2188;BME280;1100;52.014;8.540;2023-03-23T02:33:58;98922.53;;;9.97;85.39
2188;BME280;1100;52.014;8.540;2023-03-23T02:36:31;98929.34;;;9.96;85.10
2188;BME280;1100;52.014;8.540;2023-03-23T02:39:14;98920.22;;;9.95;85.65
2188;BME280;1100;52.014;8.540;2023-03-23T02:41:50;98929.00;;;9.94;85.23
2188;BME280;1100;52.014;8.540;2023-03-23T02:44:18;98901.25;;;9.84;85.11
2188;BME280;1100;52.014;8.540;2023-03-23T02:46:44;98876.91;;;9.79;85.60
2188;BME280;1100;52.014;8.540;2023-03-23T02:49:12;98868.28;;;9.77;85.97
2188;BME280;1100;52.014;8.540;2023-03-23T02:51:41;98883.09;;;9.74;85.62
2188;BME280;1100;52.014;8.540;2023-03-23T02:54:09;98850.09;;;9.67;85.83
2188;BME280;1100;52.014;8.540;2023-03-23T02:56:35;98862.09;;;9.64;85.96
2188;BME280;1100;52.014;8.540;2023-03-23T02:59:01;98868.91;;;9.63;86.22
2188;BME280;1100;52.014;8.540;2023-03-23T03:04:01;98876.91;;;9.60;86.15
2188;BME280;1100;52.014;8.540;2023-03-23T03:06:51;98878.94;;;9.60;86.14
2188;BME280;1100;52.014;8.540;2023-03-23T03:09:31;98865.34;;;9.62;86.14
2188;BME280;1100;52.014;8.540;2023-03-23T03:12:06;98879.06;;;9.66;86.08
2188;BME280;1100;52.014;8.540;2023-03-23T03:14:41;98880.31;;;9.65;86.20
2188;BME280;1100;52.014;8.540;2023-03-23T03:17:17;98863.97;;;9.67;86.33
2188;BME280;1100;52.014;8.540;2023-03-23T03:19:48;98875.38;;;9.69;86.10
2188;BME280;1100;52.014;8.540;2023-03-23T03:22:14;98880.47;;;9.70;85.99
2188;BME280;1100;52.014;8.540;2023-03-23T03:24:42;98874.13;;;9.70;85.90
2188;BME280;1100;52.014;8.540;2023-03-23T03:27:14;98879.22;;;9.71;86.08
2188;BME280;1100;52.014;8.540;2023-03-23T03:29:45;98867.38;;;9.71;85.84
2188;BME280;1100;52.014;8.540;2023-03-23T03:32:17;98852.84;;;9.67;85.67
2188;BME280;1100;52.014;8.540;2023-03-23T03:34:43;98856.88;;;9.66;85.75
2188;BME280;1100;52.014;8.540;2023-03-23T03:37:09;98854.09;;;9.66;85.54
2188;BME280;1100;52.014;8.540;2023-03-23T03:39:37;98852.09;;;9.66;85.67
2188;BME280;1100;52.014;8.540;2023-03-23T03:42:06;98850.53;;;9.65;85.67
2188;BME280;1100;52.014;8.540;2023-03-23T03:44:32;98845.78;;;9.66;85.47
2188;BME280;1100;52.014;8.540;2023-03-23T03:46:58;98833.91;;;9.65;85.43
2188;BME280;1100;52.014;8.540;2023-03-23T03:49:23;98822.81;;;9.65;85.54
2188;BME280;1100;52.014;8.540;2023-03-23T03:51:48;98804.94;;;9.66;85.74
2188;BME280;1100;52.014;8.540;2023-03-23T03:54:14;98798.28;;;9.64;85.49
2188;BME280;1100;52.014;8.540;2023-03-23T03:56:41;98805.88;;;9.63;85.72
2188;BME280;1100;52.014;8.540;2023-03-23T03:59:08;98817.44;;;9.62;85.50
2188;BME280;1100;52.014;8.540;2023-03-23T04:01:35;98834.06;;;9.62;85.82
2188;BME280;1100;52.014;8.540;2023-03-23T04:04:00;98828.53;;;9.62;85.50
2188;BME280;1100;52.014;8.540;2023-03-23T04:06:26;98829.28;;;9.62;85.50
2188;BME280;1100;52.014;8.540;2023-03-23T04:08:54;98831.31;;;9.62;85.48
2188;BME280;1100;52.014;8.540;2023-03-23T04:11:20;98832.06;;;9.62;85.46
2188;BME280;1100;52.014;8.540;2023-03-23T04:13:46;98828.97;;;9.69;85.87
2188;BME280;1100;52.014;8.540;2023-03-23T04:16:11;98831.13;;;9.75;85.80
2188;BME280;1100;52.014;8.540;2023-03-23T04:18:36;98832.34;;;9.74;85.52
2188;BME280;1100;52.014;8.540;2023-03-23T04:21:02;98833.59;;;9.72;85.66
2188;BME280;1100;52.014;8.540;2023-03-23T04:23:30;98845.78;;;9.75;85.60
2188;BME280;1100;52.014;8.540;2023-03-23T04:25:59;98837.44;;;9.75;85.59
2188;BME280;1100;52.014;8.540;2023-03-23T04:28:25;98831.88;;;9.75;85.53
2188;BME280;1100;52.014;8.540;2023-03-23T04:30:51;98819.53;;;9.76;85.75
2188;BME280;1100;52.014;8.540;2023-03-23T04:33:24;98823.88;;;9.77;85.72
2188;BME280;1100;52.014;8.540;2023-03-23T04:35:52;98843.59;;;9.79;85.67
2188;BME280;1100;52.014;8.540;2023-03-23T04:38:19;98826.94;;;9.79;85.63
2188;BME280;1100;52.014;8.540;2023-03-23T04:40:49;98830.97;;;9.78;85.49
2188;BME280;1100;52.014;8.540;2023-03-23T04:43:19;98851.63;;;9.77;85.56
2188;BME280;1100;52.014;8.540;2023-03-23T04:45:56;98850.38;;;9.78;85.73
2188;BME280;1100;52.014;8.540;2023-03-23T04:48:26;98842.84;;;9.79;85.52
2188;BME280;1100;52.014;8.540;2023-03-23T04:50:52;98845.78;;;9.75;85.41
2188;BME280;1100;52.014;8.540;2023-03-23T04:53:17;98850.06;;;9.76;85.55
2188;BME280;1100;52.014;8.540;2023-03-23T04:55:43;98847.16;;;9.80;85.66
2188;BME280;1100;52.014;8.540;2023-03-23T04:58:09;98846.22;;;9.83;85.71
2188;BME280;1100;52.014;8.540;2023-03-23T05:00:35;98855.63;;;9.85;85.55
2188;BME280;1100;52.014;8.540;2023-03-23T05:03:01;98850.84;;;9.86;85.36
2188;BME280;1100;52.014;8.540;2023-03-23T05:05:27;98840.97;;;9.85;85.46
2188;BME280;1100;52.014;8.540;2023-03-23T05:07:54;98851.16;;;9.88;85.67
2188;BME280;1100;52.014;8.540;2023-03-23T05:10:20;98841.59;;;9.89;85.57
2188;BME280;1100;52.014;8.540;2023-03-23T05:12:46;98854.22;;;9.90;85.74
2188;BME280;1100;52.014;8.540;2023-03-23T05:15:13;98848.97;;;9.92;85.43
2188;BME280;1100;52.014;8.540;2023-03-23T05:17:39;98858.84;;;9.93;85.48
2188;BME280;1100;52.014;8.540;2023-03-23T05:20:06;98848.50;;;9.94;85.42
2188;BME280;1100;52.014;8.540;2023-03-23T05:22:35;98850.34;;;9.97;85.24
2188;BME280;1100;52.014;8.540;2023-03-23T05:25:01;98851.13;;;9.97;85.18
2188;BME280;1100;52.014;8.540;2023-03-23T05:27:30;98842.81;;;9.97;85.12
2188;BME280;1100;52.014;8.540;2023-03-23T05:29:56;98849.13;;;9.98;85.18
2188;BME280;1100;52.014;8.540;2023-03-23T05:32:24;98829.69;;;9.98;85.17
2188;BME280;1100;52.014;8.540;2023-03-23T05:35:01;98831.84;;;10.03;84.92
2188;BME280;1100;52.014;8.540;2023-03-23T05:37:29;98833.84;;;10.03;84.81
2188;BME280;1100;52.014;8.540;2023-03-23T05:39:58;98832.31;;;10.02;84.76
2188;BME280;1100;52.014;8.540;2023-03-23T05:42:27;98827.53;;;10.02;84.55
2188;BME280;1100;52.014;8.540;2023-03-23T05:44:52;98829.06;;;10.03;84.64
2188;BME280;1100;52.014;8.540;2023-03-23T05:47:18;98829.38;;;10.05;84.68
2188;BME280;1100;52.014;8.540;2023-03-23T05:49:43;98831.38;;;10.05;84.66
2188;BME280;1100;52.014;8.540;2023-03-23T05:52:09;98825.81;;;10.05;84.50
2188;BME280;1100;52.014;8.540;2023-03-23T05:54:34;98837.38;;;10.03;84.45
2188;BME280;1100;52.014;8.540;2023-03-23T05:56:59;98827.53;;;10.02;84.52
2188;BME280;1100;52.014;8.540;2023-03-23T05:59:25;98835.88;;;10.02;84.46
2188;BME280;1100;52.014;8.540;2023-03-23T06:01:51;98842.94;;;10.03;84.50
2188;BME280;1100;52.014;8.540;2023-03-23T06:04:18;98852.34;;;10.06;84.75
2188;BME280;1100;52.014;8.540;2023-03-23T06:06:44;98849.41;;;10.09;84.59
2188;BME280;1100;52.014;8.540;2023-03-23T06:09:09;98854.50;;;10.11;84.51
2188;BME280;1100;52.014;8.540;2023-03-23T06:11:35;98848.47;;;10.13;84.55
2188;BME280;1100;52.014;8.540;2023-03-23T06:14:00;98853.88;;;10.16;84.22
2188;BME280;1100;52.014;8.540;2023-03-23T06:16:26;98860.19;;;10.17;84.58
2188;BME280;1100;52.014;8.540;2023-03-23T06:18:51;98877.47;;;10.21;84.33
2188;BME280;1100;52.014;8.540;2023-03-23T06:21:17;98862.34;;;10.22;84.42
2188;BME280;1100;52.014;8.540;2023-03-23T06:23:46;98870.66;;;10.22;84.31
2188;BME280;1100;52.014;8.540;2023-03-23T06:26:14;98870.66;;;10.22;84.22
2188;BME280;1100;52.014;8.540;2023-03-23T06:28:41;98867.09;;;10.21;84.02
2188;BME280;1100;52.014;8.540;2023-03-23T06:31:07;98887.00;;;10.20;84.19
2188;BME280;1100;52.014;8.540;2023-03-23T06:33:34;98867.88;;;10.22;84.32
2188;BME280;1100;52.014;8.540;2023-03-23T06:36:03;98872.66;;;10.21;84.14
2188;BME280;1100;52.014;8.540;2023-03-23T06:38:29;98873.44;;;10.22;84.30
2188;BME280;1100;52.014;8.540;2023-03-23T06:40:55;98865.72;;;10.26;84.22
2188;BME280;1100;52.014;8.540;2023-03-23T06:43:22;98880.34;;;10.36;84.24
2188;BME280;1100;52.014;8.540;2023-03-23T06:45:48;98874.63;;;10.40;84.16
2188;BME280;1100;52.014;8.540;2023-03-23T06:48:13;98876.31;;;10.46;84.13
2188;BME280;1100;52.014;8.540;2023-03-23T06:50:42;98889.28;;;10.50;84.01
2188;BME280;1100;52.014;8.540;2023-03-23T06:53:08;98890.38;;;10.52;83.90
2188;BME280;1100;52.014;8.540;2023-03-23T06:55:34;98885.56;;;10.53;83.98
2188;BME280;1100;52.014;8.540;2023-03-23T06:57:59;98883.25;;;10.51;83.97
2188;BME280;1100;52.014;8.540;2023-03-23T07:00:26;98890.38;;;10.52;83.80
2188;BME280;1100;52.014;8.540;2023-03-23T07:02:52;98893.75;;;10.56;83.76
2188;BME280;1100;52.014;8.540;2023-03-23T07:05:18;98897.09;;;10.61;83.69
2188;BME280;1100;52.014;8.540;2023-03-23T07:07:43;98896.94;;;10.64;83.57
2188;BME280;1100;52.014;8.540;2023-03-23T07:10:09;98898.94;;;10.64;83.71
2188;BME280;1100;52.014;8.540;2023-03-23T07:12:35;98896.00;;;10.67;83.25
2188;BME280;1100;52.014;8.540;2023-03-23T07:15:02;98902.19;;;10.71;83.34
2188;BME280;1100;52.014;8.540;2023-03-23T07:17:28;98900.00;;;10.76;83.18
2188;BME280;1100;52.014;8.540;2023-03-23T07:19:53;98892.91;;;10.75;83.25
2188;BME280;1100;52.014;8.540;2023-03-23T07:22:19;98903.72;;;10.73;83.33
2188;BME280;1100;52.014;8.540;2023-03-23T07:24:44;98902.31;;;10.77;83.42
2188;BME280;1100;52.014;8.540;2023-03-23T07:27:10;98888.06;;;10.84;82.95
2188;BME280;1100;52.014;8.540;2023-03-23T07:29:35;98895.00;;;10.89;83.09
2188;BME280;1100;52.014;8.540;2023-03-23T07:32:04;98896.19;;;10.98;82.77
2188;BME280;1100;52.014;8.540;2023-03-23T07:34:30;98902.47;;;11.07;82.96
2188;BME280;1100;52.014;8.540;2023-03-23T07:36:55;98912.00;;;11.16;82.98
2188;BME280;1100;52.014;8.540;2023-03-23T07:39:21;98909.22;;;11.16;82.24
2188;BME280;1100;52.014;8.540;2023-03-23T07:41:48;98894.56;;;11.15;81.86
2188;BME280;1100;52.014;8.540;2023-03-23T07:44:13;98915.25;;;11.14;82.14
2188;BME280;1100;52.014;8.540;2023-03-23T07:46:39;98910.09;;;11.22;82.02
2188;BME280;1100;52.014;8.540;2023-03-23T07:49:05;98908.53;;;11.30;81.99
2188;BME280;1100;52.014;8.540;2023-03-23T07:51:31;98933.56;;;11.30;81.64
2188;BME280;1100;52.014;8.540;2023-03-23T07:53:57;98925.56;;;11.23;81.42
2188;BME280;1100;52.014;8.540;2023-03-23T07:56:23;98912.19;;;11.12;81.24
2188;BME280;1100;52.014;8.540;2023-03-23T07:58:48;98926.91;;;11.03;81.69
2188;BME280;1100;52.014;8.540;2023-03-23T08:01:14;98929.56;;;10.98;81.61
2188;BME280;1100;52.014;8.540;2023-03-23T08:03:40;98917.84;;;10.93;81.73
2188;BME280;1100;52.014;8.540;2023-03-23T08:06:06;98924.63;;;10.92;81.78
2188;BME280;1100;52.014;8.540;2023-03-23T08:08:31;98929.13;;;10.90;81.80
2188;BME280;1100;52.014;8.540;2023-03-23T08:10:58;98927.28;;;10.87;81.76
2188;BME280;1100;52.014;8.540;2023-03-23T08:13:24;98923.25;;;10.88;81.92
2188;BME280;1100;52.014;8.540;2023-03-23T08:15:49;98920.31;;;10.91;81.92
2188;BME280;1100;52.014;8.540;2023-03-23T08:18:16;98932.50;;;10.94;82.01
2188;BME280;1100;52.014;8.540;2023-03-23T08:20:42;98937.91;;;10.98;81.87
2188;BME280;1100;52.014;8.540;2023-03-23T08:23:08;98924.00;;;10.98;81.89
2188;BME280;1100;52.014;8.540;2023-03-23T08:25:33;98933.13;;;10.98;81.71
2188;BME280;1100;52.014;8.540;2023-03-23T08:28:00;98940.22;;;10.99;81.89
2188;BME280;1100;52.014;8.540;2023-03-23T08:30:27;98927.84;;;11.00;81.91
2188;BME280;1100;52.014;8.540;2023-03-23T08:32:55;98938.03;;;11.03;81.56
2188;BME280;1100;52.014;8.540;2023-03-23T08:35:20;98929.22;;;11.05;81.73
2188;BME280;1100;52.014;8.540;2023-03-23T08:37:46;98926.25;;;11.08;81.86
2188;BME280;1100;52.014;8.540;2023-03-23T08:40:16;98930.88;;;11.12;81.32
2188;BME280;1100;52.014;8.540;2023-03-23T08:42:45;98937.50;;;11.14;81.53
2188;BME280;1100;52.014;8.540;2023-03-23T08:45:12;98931.78;;;11.18;81.19
2188;BME280;1100;52.014;8.540;2023-03-23T08:47:39;98925.44;;;11.17;81.17
2188;BME280;1100;52.014;8.540;2023-03-23T08:50:06;98935.34;;;11.18;80.99
2188;BME280;1100;52.014;8.540;2023-03-23T08:52:32;98928.06;;;11.21;80.77
2188;BME280;1100;52.014;8.540;2023-03-23T08:54:57;98937.16;;;11.21;80.75
2188;BME280;1100;52.014;8.540;2023-03-23T08:57:25;98945.53;;;11.21;80.59
2188;BME280;1100;52.014;8.540;2023-03-23T08:59:51;98937.75;;;11.26;80.04
2188;BME280;1100;52.014;8.540;2023-03-23T09:02:20;98945.63;;;11.27;80.19
2188;BME280;1100;52.014;8.540;2023-03-23T09:04:45;98937.28;;;11.27;80.26
2188;BME280;1100;52.014;8.540;2023-03-23T09:07:11;98946.69;;;11.30;80.08
2188;BME280;1100;52.014;8.540;2023-03-23T09:09:39;98944.53;;;11.34;79.98
2188;BME280;1100;52.014;8.540;2023-03-23T09:12:06;98946.63;;;11.39;79.48
2188;BME280;1100;52.014;8.540;2023-03-23T09:14:32;98951.09;;;11.46;79.24
2188;BME280;1100;52.014;8.540;2023-03-23T09:16:57;98965.09;;;11.52;79.22
2188;BME280;1100;52.014;8.540;2023-03-23T09:19:23;98952.06;;;11.58;78.70
2188;BME280;1100;52.014;8.540;2023-03-23T09:21:48;98960.38;;;11.67;78.21
2188;BME280;1100;52.014;8.540;2023-03-23T09:24:15;98968.66;;;11.77;78.95
2188;BME280;1100;52.014;8.540;2023-03-23T09:26:40;98958.22;;;11.87;78.46
2188;BME280;1100;52.014;8.540;2023-03-23T09:29:06;98969.94;;;11.91;77.42
2188;BME280;1100;52.014;8.540;2023-03-23T09:31:31;98964.66;;;11.93;77.02
2188;BME280;1100;52.014;8.540;2023-03-23T09:33:57;98975.34;;;11.94;76.45
2188;BME280;1100;52.014;8.540;2023-03-23T09:36:27;98975.81;;;11.93;76.19
2188;BME280;1100;52.014;8.540;2023-03-23T09:38:57;98970.25;;;11.93;76.28
2188;BME280;1100;52.014;8.540;2023-03-23T09:44:27;98990.22;;;11.91;75.74
2188;BME280;1100;52.014;8.540;2023-03-23T09:47:05;98995.78;;;11.91;76.42
2188;BME280;1100;52.014;8.540;2023-03-23T09:52:17;98992.09;;;11.85;75.83
2188;BME280;1100;52.014;8.540;2023-03-23T09:57:38;99000.75;;;11.87;75.71
2188;BME280;1100;52.014;8.540;2023-03-23T10:00:38;99002.31;;;11.88;75.28
2188;BME280;1100;52.014;8.540;2023-03-23T10:03:16;99014.22;;;11.89;75.08
2188;BME280;1100;52.014;8.540;2023-03-23T10:05:48;98999.81;;;11.90;74.95
2188;BME280;1100;52.014;8.540;2023-03-23T10:08:20;99010.47;;;11.92;74.61
2188;BME280;1100;52.014;8.540;2023-03-23T10:11:00;98997.25;;;12.02;74.57
2188;BME280;1100;52.014;8.540;2023-03-23T10:15:58;99000.41;;;12.19;73.93
2188;BME280;1100;52.014;8.540;2023-03-23T10:18:38;98999.38;;;12.31;74.30
2188;BME280;1100;52.014;8.540;2023-03-23T10:21:15;99005.72;;;12.47;73.61
2188;BME280;1100;52.014;8.540;2023-03-23T10:26:41;99001.69;;;12.78;72.33
2188;BME280;1100;52.014;8.540;2023-03-23T10:29:21;98987.06;;;12.68;71.42
2188;BME280;1100;52.014;8.540;2023-03-23T10:34:50;98975.44;;;12.70;72.00
2188;BME280;1100;52.014;8.540;2023-03-23T10:37:54;98983.88;;;12.76;71.75
2188;BME280;1100;52.014;8.540;2023-03-23T10:40:25;98985.94;;;12.75;70.45
2188;BME280;1100;52.014;8.540;2023-03-23T10:42:53;98984.09;;;12.72;71.46
2188;BME280;1100;52.014;8.540;2023-03-23T10:45:22;98986.13;;;12.71;71.25
2188;BME280;1100;52.014;8.540;2023-03-23T10:48:13;98986.88;;;12.72;71.09
2188;BME280;1100;52.014;8.540;2023-03-23T10:50:44;98989.88;;;12.68;70.96
2188;BME280;1100;52.014;8.540;2023-03-23T10:53:22;99019.00;;;12.67;71.37
2188;BME280;1100;52.014;8.540;2023-03-23T10:55:52;99022.63;;;12.58;70.95
2188;BME280;1100;52.014;8.540;2023-03-23T10:58:31;99059.91;;;12.46;71.44
2188;BME280;1100;52.014;8.540;2023-03-23T11:01:03;99075.69;;;12.10;70.15
2188;BME280;1100;52.014;8.540;2023-03-23T11:06:05;99056.69;;;9.84;72.74
2188;BME280;1100;52.014;8.540;2023-03-23T11:08:46;99063.25;;;9.18;74.33
2188;BME280;1100;52.014;8.540;2023-03-23T11:13:58;99078.91;;;8.44;76.66
2188;BME280;1100;52.014;8.540;2023-03-23T11:16:31;99090.06;;;8.31;77.24
2188;BME280;1100;52.014;8.540;2023-03-23T11:18:58;99084.97;;;8.30;78.94
2188;BME280;1100;52.014;8.540;2023-03-23T11:21:25;99098.28;;;8.22;79.64
2188;BME280;1100;52.014;8.540;2023-03-23T11:23:57;99089.22;;;8.08;80.21
2188;BME280;1100;52.014;8.540;2023-03-23T11:26:28;99091.91;;;7.99;80.47
2188;BME280;1100;52.014;8.540;2023-03-23T11:29:02;99092.78;;;7.96;80.04
2188;BME280;1100;52.014;8.540;2023-03-23T11:31:38;99080.50;;;7.97;80.58
2188;BME280;1100;52.014;8.540;2023-03-23T11:36:43;99096.31;;;8.09;81.61
2188;BME280;1100;52.014;8.540;2023-03-23T11:39:20;99104.94;;;8.12;81.39
2188;BME280;1100;52.014;8.540;2023-03-23T11:41:46;99100.97;;;8.13;81.50
2188;BME280;1100;52.014;8.540;2023-03-23T11:44:13;99096.19;;;8.13;81.61
2188;BME280;1100;52.014;8.540;2023-03-23T11:49:30;99113.03;;;8.19;82.05
2188;BME280;1100;52.014;8.540;2023-03-23T11:52:05;99105.16;;;8.17;82.15
2188;BME280;1100;52.014;8.540;2023-03-23T11:54:48;99113.03;;;8.19;82.42
2188;BME280;1100;52.014;8.540;2023-03-23T11:57:16;99126.41;;;8.20;82.68
2188;BME280;1100;52.014;8.540;2023-03-23T11:59:41;99118.88;;;8.21;82.71
2188;BME280;1100;52.014;8.540;2023-03-23T12:02:39;99107.22;;;8.26;82.73
2188;BME280;1100;52.014;8.540;2023-03-23T12:11:07;99109.00;;;8.33;83.49
2188;BME280;1100;52.014;8.540;2023-03-23T12:13:54;99094.03;;;8.30;83.31
2188;BME280;1100;52.014;8.540;2023-03-23T12:16:41;99090.94;;;8.28;83.94
2188;BME280;1100;52.014;8.540;2023-03-23T12:22:01;99101.34;;;8.24;83.81
2188;BME280;1100;52.014;8.540;2023-03-23T12:25:08;99098.59;;;8.24;83.97
2188;BME280;1100;52.014;8.540;2023-03-23T12:38:14;99117.31;;;8.33;84.49
2188;BME280;1100;52.014;8.540;2023-03-23T12:40:47;99106.41;;;8.39;84.53
2188;BME280;1100;52.014;8.540;2023-03-23T12:46:19;99103.38;;;8.46;84.89
2188;BME280;1100;52.014;8.540;2023-03-23T12:49:04;99092.31;;;8.46;84.48
2188;BME280;1100;52.014;8.540;2023-03-23T12:51:35;99097.53;;;8.44;84.66
2188;BME280;1100;52.014;8.540;2023-03-23T12:57:04;99102.31;;;8.43;84.72
2188;BME280;1100;52.014;8.540;2023-03-23T12:59:47;99109.91;;;8.52;85.08
2188;BME280;1100;52.014;8.540;2023-03-23T13:02:16;99110.59;;;8.56;85.34
2188;BME280;1100;52.014;8.540;2023-03-23T13:04:50;99108.59;;;8.57;85.53
2188;BME280;1100;52.014;8.540;2023-03-23T13:07:23;99098.63;;;8.59;85.84
2188;BME280;1100;52.014;8.540;2023-03-23T13:09:58;99112.03;;;8.61;85.50
2188;BME280;1100;52.014;8.540;2023-03-23T13:12:26;99114.00;;;8.60;86.00
2188;BME280;1100;52.014;8.540;2023-03-23T13:18:04;99106.25;;;8.55;85.72
2188;BME280;1100;52.014;8.540;2023-03-23T13:20:47;99095.41;;;8.61;85.98
2188;BME280;1100;52.014;8.540;2023-03-23T13:23:24;99097.00;;;8.71;86.14
2188;BME280;1100;52.014;8.540;2023-03-23T13:26:01;99093.84;;;8.82;86.42
2188;BME280;1100;52.014;8.540;2023-03-23T13:28:30;99093.91;;;8.92;86.38
2188;BME280;1100;52.014;8.540;2023-03-23T13:33:23;99092.44;;;9.00;86.39
2188;BME280;1100;52.014;8.540;2023-03-23T13:35:49;99092.28;;;9.04;86.49
2188;BME280;1100;52.014;8.540;2023-03-23T13:38:28;99092.94;;;9.08;86.64
2188;BME280;1100;52.014;8.540;2023-03-23T13:40:55;99090.66;;;9.16;86.92
2188;BME280;1100;52.014;8.540;2023-03-23T13:43:33;99077.13;;;9.27;86.87
2188;BME280;1100;52.014;8.540;2023-03-23T13:48:49;99097.47;;;9.24;87.23
2188;BME280;1100;52.014;8.540;2023-03-23T13:51:47;99088.38;;;9.24;87.43
2188;BME280;1100;52.014;8.540;2023-03-23T13:56:53;99082.97;;;9.20;87.60
2188;BME280;1100;52.014;8.540;2023-03-23T14:01:51;99080.75;;;9.37;88.10
2188;BME280;1100;52.014;8.540;2023-03-23T14:04:18;99081.38;;;9.41;87.50
2188;BME280;1100;52.014;8.540;2023-03-23T14:06:45;99068.78;;;9.50;87.61
2188;BME280;1100;52.014;8.540;2023-03-23T14:11:49;99079.75;;;9.63;88.38
2188;BME280;1100;52.014;8.540;2023-03-23T14:14:29;99087.91;;;9.57;88.05
2188;BME280;1100;52.014;8.540;2023-03-23T14:17:14;99091.00;;;9.59;88.66
2188;BME280;1100;52.014;8.540;2023-03-23T14:19:42;99087.75;;;9.60;88.10
2188;BME280;1100;52.014;8.540;2023-03-23T14:22:25;99087.31;;;9.62;88.14
2188;BME280;1100;52.014;8.540;2023-03-23T14:24:52;99089.31;;;9.62;88.56
2188;BME280;1100;52.014;8.540;2023-03-23T14:27:22;99095.63;;;9.62;88.22
2188;BME280;1100;52.014;8.540;2023-03-23T14:30:09;99104.41;;;9.60;88.52
2188;BME280;1100;52.014;8.540;2023-03-23T14:32:37;99106.09;;;9.58;88.33
2188;BME280;1100;52.014;8.540;2023-03-23T14:35:11;99109.34;;;9.56;88.86
2188;BME280;1100;52.014;8.540;2023-03-23T14:37:38;99104.69;;;9.53;88.46
2188;BME280;1100;52.014;8.540;2023-03-23T14:40:05;99101.91;;;9.53;88.69
2188;BME280;1100;52.014;8.540;2023-03-23T14:42:35;99097.47;;;9.56;88.62
2188;BME280;1100;52.014;8.540;2023-03-23T14:45:02;99100.88;;;9.60;89.07
2188;BME280;1100;52.014;8.540;2023-03-23T14:47:32;99089.16;;;9.65;88.85
2188;BME280;1100;52.014;8.540;2023-03-23T14:50:00;99104.94;;;9.78;89.20
2188;BME280;1100;52.014;8.540;2023-03-23T14:52:36;99089.22;;;9.84;89.12
2188;BME280;1100;52.014;8.540;2023-03-23T14:55:20;99081.09;;;9.99;88.99
2188;BME280;1100;52.014;8.540;2023-03-23T14:57:46;99084.97;;;10.11;88.96
2188;BME280;1100;52.014;8.540;2023-03-23T15:00:27;99085.72;;;11.05;88.33
2188;BME280;1100;52.014;8.540;2023-03-23T15:02:56;99060.00;;;11.88;87.45
2188;BME280;1100;52.014;8.540;2023-03-23T15:05:30;99071.34;;;12.33;86.80
2188;BME280;1100;52.014;8.540;2023-03-23T15:08:03;99093.31;;;12.06;85.45